Time;durP1;ratioP1;P1;durP2;ratioP2;P2;SDS_P1;SDS_P2;PMS_P1;PMS_P2;Temp;Humidity;BMP_temperature;BMP_pressure;BME280_temperature;BME280_humidity;BME280_pressure;Samples;Min_cycle;Max_cycle;Signal;HPM_P1;HPM_P2
2021/01/11 00:00:37;;;;;;;29.73;13.63;;;-3.10;99.90;;;;;;8295322;28;20520;-67
2021/01/11 00:04:37;;;;;;;26.00;12.75;;;-3.10;99.90;;;;;;8295643;28;20072;-66
2021/01/11 00:08:38;;;;;;;28.13;13.23;;;-3.10;99.90;;;;;;8293474;28;20076;-67
2021/01/11 00:12:43;;;;;;;27.65;12.90;;;-3.10;99.90;;;;;;8294928;28;20083;-66
2021/01/11 00:16:44;;;;;;;30.23;13.40;;;-3.20;99.90;;;;;;8324770;28;20120;-66
2021/01/11 00:20:45;;;;;;;28.65;13.77;;;-3.30;99.90;;;;;;8327113;28;20029;-66
2021/01/11 00:24:45;;;;;;;31.23;14.05;;;-3.40;99.90;;;;;;8327371;28;20025;-66
2021/01/11 00:28:46;;;;;;;33.53;15.55;;;-3.40;99.90;;;;;;8326030;28;20029;-66
2021/01/11 00:32:46;;;;;;;30.88;13.50;;;-3.40;99.90;;;;;;8327178;28;20030;-66
2021/01/11 00:36:48;;;;;;;24.23;11.48;;;-3.60;99.90;;;;;;8325562;28;20032;-66
2021/01/11 00:40:48;;;;;;;30.67;14.27;;;-3.40;99.90;;;;;;8325340;28;20060;-66
2021/01/11 00:44:49;;;;;;;28.15;14.05;;;-3.60;99.90;;;;;;8326739;28;20502;-66
2021/01/11 00:48:50;;;;;;;34.22;13.65;;;-3.80;99.90;;;;;;8325267;28;20033;-66
2021/01/11 00:52:50;;;;;;;28.67;13.48;;;-4.00;99.90;;;;;;8326402;28;20503;-66
2021/01/11 00:56:51;;;;;;;28.55;13.13;;;-3.80;99.90;;;;;;8326579;28;20049;-66
2021/01/11 01:00:51;;;;;;;29.60;14.18;;;-3.90;99.90;;;;;;8326237;28;20079;-66
2021/01/11 01:04:52;;;;;;;35.00;14.18;;;-4.00;99.90;;;;;;8324744;28;20038;-67
2021/01/11 01:08:52;;;;;;;31.45;14.50;;;-4.20;99.90;;;;;;8325866;28;20480;-66
2021/01/11 01:12:53;;;;;;;32.67;14.52;;;-4.00;99.90;;;;;;8325866;28;20108;-67
2021/01/11 01:16:53;;;;;;;22.70;10.15;;;-4.10;99.90;;;;;;8325556;28;20034;-66
2021/01/11 01:20:54;;;;;;;25.42;11.35;;;-4.00;99.90;;;;;;8324533;28;20078;-66
2021/01/11 01:24:55;;;;;;;34.28;15.32;;;-4.00;99.90;;;;;;8325869;28;20087;-66
2021/01/11 01:28:55;;;;;;;37.85;15.90;;;-4.10;99.90;;;;;;8292739;28;20053;-69
2021/01/11 01:32:56;;;;;;;33.95;15.25;;;-4.30;99.90;;;;;;8292936;28;20095;-66
2021/01/11 01:36:57;;;;;;;35.78;15.82;;;-4.30;99.90;;;;;;8293017;28;20029;-66
2021/01/11 01:40:57;;;;;;;29.70;12.65;;;-4.00;99.90;;;;;;8292846;28;20026;-66
2021/01/11 01:44:58;;;;;;;24.05;10.02;;;-3.80;99.90;;;;;;8293063;28;20105;-67
2021/01/11 01:49:00;;;;;;;30.55;13.73;;;-3.80;99.90;;;;;;8292822;28;20042;-66
2021/01/11 01:53:00;;;;;;;32.88;14.85;;;-4.00;99.90;;;;;;8324058;28;20026;-66
2021/01/11 01:57:03;;;;;;;34.47;14.93;;;-3.90;99.90;;;;;;8324916;28;20708;-66
2021/01/11 02:01:03;;;;;;;32.83;14.30;;;-3.80;99.90;;;;;;8328830;28;20140;-66
2021/01/11 02:05:06;;;;;;;28.67;13.10;;;-3.90;99.90;;;;;;8330319;28;20044;-67
2021/01/11 02:09:11;;;;;;;36.15;14.77;;;-3.90;99.90;;;;;;8331568;28;20033;-66
2021/01/11 02:13:31;;;;;;;33.60;14.73;;;-3.90;99.90;;;;;;8331341;28;20431;-66
2021/01/11 02:17:36;;;;;;;34.05;14.32;;;-3.90;99.90;;;;;;8329784;28;20030;-67
2021/01/11 02:22:02;;;;;;;19.48;9.85;;;-3.80;99.90;;;;;;8330145;28;20041;-66
2021/01/11 02:26:31;;;;;;;27.77;12.95;;;-3.80;99.90;;;;;;8299350;28;20024;-69
2021/01/11 02:30:34;;;;;;;32.92;14.73;;;-3.90;99.90;;;;;;8298034;28;20473;-69
2021/01/11 02:34:37;;;;;;;28.23;13.38;;;-4.00;99.90;;;;;;8298380;28;20030;-69
2021/01/11 02:38:38;;;;;;;31.15;12.93;;;-4.00;99.90;;;;;;8298351;28;20029;-69
2021/01/11 02:42:39;;;;;;;10.73;4.85;;;-3.80;99.90;;;;;;8296596;28;20508;-69
2021/01/11 02:46:39;;;;;;;26.88;11.20;;;-3.80;99.90;;;;;;8296675;28;20054;-68
2021/01/11 02:51:06;;;;;;;26.70;10.50;;;-3.70;99.90;;;;;;8327700;28;20026;-69
2021/01/11 02:55:14;;;;;;;26.17;11.35;;;-3.90;99.90;;;;;;8311865;28;20083;-68
2021/01/11 02:59:27;;;;;;;21.42;8.05;;;-3.80;99.90;;;;;;8331209;28;20393;-68
2021/01/11 03:03:30;;;;;;;29.30;11.77;;;-3.90;99.90;;;;;;8330211;28;20025;-69
2021/01/11 03:07:30;;;;;;;26.48;11.93;;;-4.00;99.90;;;;;;8329407;28;20037;-69
2021/01/11 03:11:34;;;;;;;30.35;12.32;;;-4.00;99.90;;;;;;8327972;28;20053;-69
2021/01/11 03:15:34;;;;;;;29.70;13.02;;;-3.90;99.90;;;;;;8328812;28;20504;-69
2021/01/11 03:19:35;;;;;;;23.77;9.85;;;-3.80;99.90;;;;;;8329831;28;20059;-69
2021/01/11 03:23:37;;;;;;;29.33;13.00;;;-3.70;99.90;;;;;;8330158;28;20059;-69
2021/01/11 03:27:37;;;;;;;26.38;12.60;;;-3.70;99.90;;;;;;8328044;28;20487;-69
2021/01/11 03:31:39;;;;;;;33.70;14.23;;;-3.80;99.90;;;;;;8329807;28;20060;-69
2021/01/11 03:35:39;;;;;;;32.90;13.48;;;-3.80;99.90;;;;;;8330079;28;20472;-69
2021/01/11 03:39:40;;;;;;;29.95;12.98;;;-3.80;99.90;;;;;;8329543;28;20040;-67
2021/01/11 03:43:42;;;;;;;39.33;14.73;;;-3.80;99.90;;;;;;8329971;28;20054;-66
2021/01/11 03:47:43;;;;;;;33.72;13.70;;;-3.70;99.90;;;;;;8329478;28;20025;-66
2021/01/11 03:51:43;;;;;;;32.80;14.45;;;-3.70;99.90;;;;;;8329382;28;20476;-67
2021/01/11 03:55:44;;;;;;;31.00;13.20;;;-3.80;99.90;;;;;;8329439;28;20044;-67
2021/01/11 03:59:44;;;;;;;28.67;14.32;;;-3.50;99.90;;;;;;8327000;28;20025;-67
2021/01/11 04:03:45;;;;;;;31.95;13.93;;;-3.60;99.90;;;;;;8328919;28;20022;-66
2021/01/11 04:07:45;;;;;;;27.80;12.02;;;-3.60;99.90;;;;;;8329047;28;20133;-66
2021/01/11 04:11:46;;;;;;;33.10;12.52;;;-3.60;99.90;;;;;;8328767;28;20038;-66
2021/01/11 04:15:47;;;;;;;31.65;13.90;;;-3.60;99.90;;;;;;8328422;28;20096;-66
2021/01/11 04:19:47;;;;;;;33.20;14.38;;;-3.70;99.90;;;;;;8328320;28;20096;-67
2021/01/11 04:23:48;;;;;;;28.60;11.73;;;-3.60;99.90;;;;;;8327746;28;20116;-66
2021/01/11 04:27:48;;;;;;;20.35;8.77;;;-3.70;99.90;;;;;;8327175;28;20071;-66
2021/01/11 04:31:49;;;;;;;27.88;10.80;;;-3.80;99.90;;;;;;8326808;28;20507;-68
2021/01/11 04:35:50;;;;;;;26.27;11.77;;;-4.00;99.90;;;;;;8328277;28;20024;-66
2021/01/11 04:39:50;;;;;;;26.00;12.05;;;-3.90;99.90;;;;;;8328055;28;20025;-66
2021/01/11 04:43:54;;;;;;;28.77;11.30;;;-3.90;99.90;;;;;;8325981;28;20044;-66
2021/01/11 04:47:56;;;;;;;33.40;14.13;;;-4.00;99.90;;;;;;8326245;28;20033;-66
2021/01/11 04:51:58;;;;;;;29.00;13.13;;;-3.80;99.90;;;;;;8326186;28;20029;-66
2021/01/11 04:55:59;;;;;;;29.92;13.15;;;-3.90;99.90;;;;;;8325693;28;20049;-66
2021/01/11 05:00:08;;;;;;;28.95;13.48;;;-4.00;99.90;;;;;;8326848;28;20037;-66
2021/01/11 05:04:13;;;;;;;33.20;13.57;;;-4.10;99.90;;;;;;8326229;28;20024;-67
2021/01/11 05:08:13;;;;;;;33.85;13.73;;;-4.00;99.90;;;;;;8326284;28;20040;-67
2021/01/11 05:12:14;;;;;;;31.27;13.45;;;-4.10;99.90;;;;;;8323460;28;20037;-67
2021/01/11 05:16:16;;;;;;;30.63;14.25;;;-3.90;99.90;;;;;;8326163;28;20404;-66
2021/01/11 05:20:23;;;;;;;29.33;12.82;;;-3.90;99.90;;;;;;8325743;28;20037;-66
2021/01/11 05:24:31;;;;;;;25.27;10.93;;;-3.80;99.90;;;;;;8327154;28;20033;-67
2021/01/11 05:28:32;;;;;;;27.20;12.32;;;-3.60;99.90;;;;;;8326757;28;20033;-68
2021/01/11 05:32:33;;;;;;;27.02;12.07;;;-3.70;99.90;;;;;;8326064;28;20033;-67
2021/01/11 05:36:34;;;;;;;30.08;13.75;;;-3.60;99.90;;;;;;8329879;28;20029;-67
2021/01/11 05:40:35;;;;;;;28.65;12.45;;;-3.60;99.90;;;;;;8336482;28;20494;-64
2021/01/11 05:44:35;;;;;;;29.33;12.73;;;-3.40;99.90;;;;;;8334000;28;20052;-69
2021/01/11 05:48:36;;;;;;;26.77;11.98;;;-3.40;99.90;;;;;;8333166;28;20606;-68
2021/01/11 05:52:36;;;;;;;30.30;12.68;;;-3.30;99.90;;;;;;8334907;28;20163;-68
2021/01/11 05:56:57;;;;;;;28.88;12.10;;;-3.30;99.90;;;;;;8335168;28;20037;-69
2021/01/11 06:00:57;;;;;;;30.08;11.85;;;-3.20;99.90;;;;;;8334843;28;20029;-71
2021/01/11 06:04:58;;;;;;;29.50;12.40;;;-3.30;99.90;;;;;;8336872;28;20025;-72
2021/01/11 06:08:59;;;;;;;27.83;12.77;;;-3.30;99.90;;;;;;8335036;28;20445;-71
2021/01/11 06:12:59;;;;;;;31.45;13.48;;;-3.30;99.90;;;;;;8335071;28;20025;-71
2021/01/11 06:17:00;;;;;;;30.42;14.05;;;-3.40;99.90;;;;;;8334988;28;20094;-72
2021/01/11 06:21:01;;;;;;;30.45;13.85;;;-3.40;99.90;;;;;;8323065;28;20411;-69
2021/01/11 06:25:24;;;;;;;34.28;13.63;;;-3.40;99.90;;;;;;8331622;28;20087;-70
2021/01/11 06:29:31;;;;;;;29.33;13.25;;;-3.40;99.90;;;;;;8336365;28;20057;-69
2021/01/11 06:33:34;;;;;;;28.67;13.48;;;-3.40;99.90;;;;;;8336566;28;20036;-69
2021/01/11 06:37:35;;;;;;;28.33;11.88;;;-3.40;99.90;;;;;;8336485;28;20036;-69
2021/01/11 06:41:36;;;;;;;37.63;17.10;;;-3.30;99.90;;;;;;8335380;28;20503;-69
2021/01/11 06:45:39;;;;;;;29.48;13.25;;;-3.30;99.90;;;;;;8332536;28;20495;-71
2021/01/11 06:49:42;;;;;;;28.65;12.75;;;-3.40;99.90;;;;;;8326470;28;20384;-70
2021/01/11 06:53:43;;;;;;;29.52;13.45;;;-3.50;99.90;;;;;;8330607;28;20024;-68
2021/01/11 06:57:48;;;;;;;29.45;12.32;;;-3.50;99.90;;;;;;8326874;28;20049;-68
2021/01/11 07:01:49;;;;;;;28.90;12.05;;;-3.20;99.90;;;;;;8329094;28;20100;-68
2021/01/11 07:05:49;;;;;;;26.15;11.68;;;-3.40;99.90;;;;;;8329000;28;20526;-68
2021/01/11 07:09:53;;;;;;;26.80;11.65;;;-3.50;99.90;;;;;;8328175;28;20091;-68
2021/01/11 07:13:53;;;;;;;23.95;10.30;;;-3.60;99.90;;;;;;8329065;28;20079;-69
2021/01/11 07:17:54;;;;;;;28.08;12.48;;;-3.70;99.90;;;;;;8330399;28;20480;-69
2021/01/11 07:21:55;;;;;;;33.03;13.73;;;-3.80;99.90;;;;;;8328192;28;20025;-67
2021/01/11 07:25:56;;;;;;;32.70;13.88;;;-3.70;99.90;;;;;;8328841;28;20116;-66
2021/01/11 07:29:57;;;;;;;34.13;14.35;;;-3.70;99.90;;;;;;8329158;28;20036;-66
2021/01/11 07:34:06;;;;;;;31.45;12.60;;;-3.60;99.90;;;;;;8327447;28;20028;-67
2021/01/11 07:38:13;;;;;;;32.38;13.02;;;-3.60;99.90;;;;;;8340477;28;20028;-67
2021/01/11 07:42:18;;;;;;;33.63;13.98;;;-3.70;99.90;;;;;;8341359;28;20029;-70
2021/01/11 07:46:23;;;;;;;29.80;13.18;;;-3.50;99.90;;;;;;8332377;28;20488;-69
2021/01/11 07:50:29;;;;;;;28.05;13.32;;;-3.30;99.90;;;;;;8329332;28;20026;-69
2021/01/11 07:54:31;;;;;;;28.05;13.13;;;-3.10;99.90;;;;;;8326646;28;20425;-69
2021/01/11 07:58:32;;;;;;;20.42;10.80;;;-3.10;99.90;;;;;;8326970;28;20040;-69
2021/01/11 08:02:33;;;;;;;32.10;12.48;;;-3.10;99.90;;;;;;8325749;28;20025;-70
2021/01/11 08:06:46;;;;;;;32.03;14.80;;;-3.30;99.90;;;;;;8326363;28;20025;-70
2021/01/11 08:10:47;;;;;;;31.88;13.63;;;-3.10;99.90;;;;;;8324931;28;20029;-69
2021/01/11 08:14:49;;;;;;;27.85;12.65;;;-2.90;99.90;;;;;;8327871;28;20109;-69
2021/01/11 08:18:51;;;;;;;32.65;14.32;;;-3.10;99.90;;;;;;8327191;28;20053;-70
2021/01/11 08:22:51;;;;;;;36.95;14.75;;;-3.20;99.90;;;;;;8328833;28;20414;-68
2021/01/11 08:27:18;;;;;;;32.88;13.15;;;-3.30;99.90;;;;;;8328244;28;20033;-68
2021/01/11 08:31:20;;;;;;;46.00;18.75;;;-3.20;99.90;;;;;;8327763;28;20030;-68
2021/01/11 08:35:21;;;;;;;42.05;16.38;;;-3.00;99.90;;;;;;8326955;28;20035;-69
2021/01/11 08:39:24;;;;;;;32.13;14.02;;;-3.00;99.90;;;;;;8332412;28;20258;-67
2021/01/11 08:43:36;;;;;;;29.67;14.88;;;-2.80;99.90;;;;;;8335058;28;20037;-66
2021/01/11 08:47:37;;;;;;;33.20;14.45;;;-2.60;99.90;;;;;;8333195;28;20117;-66
2021/01/11 08:51:38;;;;;;;35.58;14.27;;;-2.60;99.90;;;;;;8327269;28;20564;-66
2021/01/11 08:55:55;;;;;;;30.27;12.77;;;-2.70;99.90;;;;;;8325742;28;20052;-66
2021/01/11 08:59:55;;;;;;;31.58;14.32;;;-2.70;99.90;;;;;;8349244;28;20028;-70
2021/01/11 09:04:01;;;;;;;34.55;14.63;;;-2.50;99.90;;;;;;8325550;28;20017;-67
2021/01/11 09:08:15;;;;;;;26.88;12.82;;;-2.50;99.90;;;;;;8326444;28;20029;-67
2021/01/11 09:12:15;;;;;;;31.90;14.40;;;-2.50;99.90;;;;;;8321017;28;20036;-65
2021/01/11 09:16:16;;;;;;;34.10;15.40;;;-2.60;99.90;;;;;;8324958;28;20035;-67
2021/01/11 09:20:17;;;;;;;23.75;10.77;;;-2.40;99.90;;;;;;8325893;28;20033;-66
2021/01/11 09:24:17;;;;;;;28.77;13.68;;;-2.30;99.90;;;;;;8325645;28;20026;-66
2021/01/11 09:28:18;;;;;;;30.17;13.38;;;-2.30;99.90;;;;;;8326853;28;20026;-66
2021/01/11 09:32:19;;;;;;;31.88;13.70;;;-2.40;99.90;;;;;;8324292;28;20053;-67
2021/01/11 09:36:21;;;;;;;24.27;10.32;;;-2.70;99.90;;;;;;8325479;28;20028;-66
2021/01/11 09:40:23;;;;;;;29.65;12.95;;;-2.70;99.90;;;;;;8326313;28;20633;-67
2021/01/11 09:44:24;;;;;;;22.45;11.52;;;-2.60;99.90;;;;;;8324492;28;20087;-67
2021/01/11 09:48:24;;;;;;;33.50;15.45;;;-2.40;99.90;;;;;;8324914;28;20484;-65
2021/01/11 09:52:25;;;;;;;32.15;14.48;;;-2.30;99.90;;;;;;8324131;28;20038;-66
2021/01/11 09:56:25;;;;;;;23.55;10.77;;;-2.10;99.90;;;;;;8325819;28;20612;-66
2021/01/11 10:00:26;;;;;;;30.13;13.50;;;-2.10;99.90;;;;;;8320649;28;20072;-66
2021/01/11 10:04:26;;;;;;;23.92;9.18;;;-2.00;99.90;;;;;;8324000;28;20033;-65
2021/01/11 10:08:27;;;;;;;27.95;13.25;;;-1.90;99.90;;;;;;8324315;28;20052;-66
2021/01/11 10:12:28;;;;;;;30.55;12.85;;;-2.10;99.90;;;;;;8324147;28;20037;-66
2021/01/11 10:16:28;;;;;;;28.75;12.88;;;-2.10;99.90;;;;;;8322956;28;20029;-65
2021/01/11 10:20:29;;;;;;;30.42;12.70;;;-2.10;99.90;;;;;;8325418;28;20117;-65
2021/01/11 10:24:30;;;;;;;20.95;8.77;;;-2.00;99.90;;;;;;8325698;28;20029;-66
2021/01/11 10:28:30;;;;;;;31.02;14.38;;;-1.80;99.90;;;;;;8330250;28;20052;-66
2021/01/11 10:32:31;;;;;;;32.42;13.27;;;-2.00;99.90;;;;;;8329398;28;20496;-66
2021/01/11 10:36:47;;;;;;;27.02;12.50;;;-1.70;99.90;;;;;;8330186;28;20024;-65
2021/01/11 10:40:47;;;;;;;24.48;10.55;;;-1.40;99.90;;;;;;8328674;28;20526;-67
2021/01/11 10:44:48;;;;;;;25.80;11.70;;;-1.50;99.90;;;;;;8330097;28;20047;-66
2021/01/11 10:48:48;;;;;;;30.38;12.95;;;-1.80;99.90;;;;;;8331310;28;20024;-67
2021/01/11 10:52:49;;;;;;;26.35;11.20;;;-1.30;99.90;;;;;;8326127;28;20034;-66
2021/01/11 10:56:51;;;;;;;24.42;12.05;;;-1.10;99.90;;;;;;8329879;28;20083;-66
2021/01/11 11:00:52;;;;;;;24.70;12.20;;;-0.90;99.90;;;;;;8329718;28;20714;-66
2021/01/11 11:04:53;;;;;;;25.77;13.05;;;-0.60;99.90;;;;;;8326193;28;20041;-65
2021/01/11 11:08:53;;;;;;;29.33;13.07;;;0.00;99.90;;;;;;8328569;28;20439;-66
2021/01/11 11:12:54;;;;;;;27.13;13.05;;;0.80;99.90;;;;;;8329781;28;20115;-66
2021/01/11 11:16:55;;;;;;;28.10;13.85;;;0.90;99.90;;;;;;8328645;28;20056;-67
2021/01/11 11:20:55;;;;;;;25.60;13.02;;;1.20;99.90;;;;;;8329864;28;20048;-66
2021/01/11 11:24:56;;;;;;;23.35;13.75;;;1.90;99.90;;;;;;8328545;28;20036;-67
2021/01/11 11:28:56;;;;;;;26.08;14.07;;;3.40;99.90;;;;;;8329612;28;20021;-67
2021/01/11 11:32:57;;;;;;;25.40;14.18;;;4.70;99.90;;;;;;8328035;28;20112;-67
2021/01/11 11:36:58;;;;;;;25.35;13.73;;;5.40;99.90;;;;;;8329500;28;20029;-66
2021/01/11 11:40:58;;;;;;;26.20;14.68;;;4.60;98.40;;;;;;8328960;28;20060;-67
2021/01/11 11:44:59;;;;;;;25.77;13.80;;;4.40;98.80;;;;;;8329036;28;20115;-67
2021/01/11 11:48:59;;;;;;;27.65;13.02;;;4.10;98.20;;;;;;8325548;28;20025;-66
2021/01/11 11:53:01;;;;;;;28.48;15.10;;;3.10;99.60;;;;;;8326996;28;20033;-67
2021/01/11 11:57:03;;;;;;;28.23;13.65;;;2.20;99.90;;;;;;8328997;28;20022;-67
2021/01/11 12:01:04;;;;;;;27.20;13.85;;;;;;;;;;8330780;28;20535;-67
2021/01/11 12:05:08;;;;;;;550.70;517.33;;;6.30;94.30;;;;;;8325373;28;20515;-66
2021/01/11 12:09:08;;;;;;;604.45;565.75;;;7.10;90.20;;;;;;8326314;28;20366;-66
2021/01/11 12:13:09;;;;;;;490.65;461.42;;;8.10;80.10;;;;;;8327415;28;20105;-66
2021/01/11 12:17:09;;;;;;;450.13;424.45;;;8.60;76.80;;;;;;8325711;28;20052;-67
2021/01/11 12:21:10;;;;;;;437.52;412.10;;;9.60;69.20;;;;;;8326411;28;20037;-67
2021/01/11 12:25:11;;;;;;;476.70;449.00;;;9.90;66.10;;;;;;8326051;28;20037;-68
2021/01/11 12:29:13;;;;;;;451.23;424.92;;;10.20;60.90;;;;;;8326985;28;20041;-67
2021/01/11 12:33:13;;;;;;;389.67;367.65;;;8.40;68.30;;;;;;8319199;28;20484;-67
2021/01/11 12:37:16;;;;;;;361.98;342.15;;;9.50;65.80;;;;;;8322908;28;20036;-68
2021/01/11 12:41:19;;;;;;;343.83;325.25;;;10.70;60.70;;;;;;8326218;28;20037;-67
2021/01/11 12:45:19;;;;;;;331.05;313.35;;;10.60;59.00;;;;;;8326118;28;20040;-66
2021/01/11 12:49:20;;;;;;;339.98;321.55;;;11.30;58.90;;;;;;8326594;28;20026;-67
2021/01/11 12:53:21;;;;;;;345.55;327.10;;;11.60;56.40;;;;;;8326565;28;20033;-67
2021/01/11 12:57:21;;;;;;;345.58;326.65;;;10.90;57.40;;;;;;8326829;28;20036;-67
2021/01/11 13:01:31;;;;;;;314.92;298.10;;;10.80;56.40;;;;;;8325918;28;20029;-66
2021/01/11 13:05:32;;;;;;;334.73;317.50;;;10.20;57.80;;;;;;8323225;28;20034;-68
2021/01/11 13:09:32;;;;;;;306.73;290.05;;;9.30;59.50;;;;;;8324618;28;20108;-66
2021/01/11 13:13:32;;;;;;;301.75;285.40;;;9.50;59.50;;;;;;8327003;28;20103;-67
2021/01/11 13:17:39;;;;;;;329.25;311.20;;;9.80;58.20;;;;;;8327150;28;20492;-67
2021/01/11 13:21:40;;;;;;;319.17;299.70;;;9.30;58.70;;;;;;8325705;28;20029;-67
2021/01/11 13:25:40;;;;;;;292.35;275.90;;;8.70;60.00;;;;;;8325905;28;20507;-67
2021/01/11 13:29:42;;;;;;;210.20;197.38;;;8.40;62.00;;;;;;8326899;28;20090;-66
2021/01/11 13:33:43;;;;;;;125.35;118.20;;;8.00;63.00;;;;;;8327021;28;20036;-66
2021/01/11 13:37:43;;;;;;;123.63;115.90;;;8.70;63.00;;;;;;8326438;28;20045;-67
2021/01/11 13:41:45;;;;;;;136.35;128.63;;;9.80;58.70;;;;;;8326552;28;20029;-68
2021/01/11 13:45:46;;;;;;;153.50;144.65;;;10.30;58.00;;;;;;8325029;28;20086;-67
2021/01/11 13:49:47;;;;;;;165.20;156.13;;;10.90;57.50;;;;;;8325430;28;20032;-67
2021/01/11 13:53:47;;;;;;;154.52;146.13;;;11.30;55.30;;;;;;8325826;28;20461;-67
2021/01/11 13:57:48;;;;;;;236.45;223.60;;;10.50;57.00;;;;;;8329377;28;20553;-67
2021/01/11 14:01:50;;;;;;;271.52;255.68;;;9.50;57.60;;;;;;8332243;28;20018;-67
2021/01/11 14:05:51;;;;;;;348.00;326.95;;;7.20;62.90;;;;;;8332141;28;20484;-68
2021/01/11 14:09:51;;;;;;;458.13;432.20;;;5.00;71.00;;;;;;8329993;28;20030;-67
2021/01/11 14:13:53;;;;;;;523.60;492.17;;;4.00;75.60;;;;;;8331078;28;20099;-67
2021/01/11 14:17:55;;;;;;;446.92;416.75;;;2.90;80.20;;;;;;8331615;28;20492;-71
2021/01/11 14:21:56;;;;;;;430.10;400.70;;;2.20;84.70;;;;;;8328566;28;20079;-72
2021/01/11 14:25:56;;;;;;;419.30;388.43;;;1.40;89.00;;;;;;8332164;28;20022;-71
2021/01/11 14:29:57;;;;;;;27.25;13.48;;;0.60;91.50;;;;;;8330188;28;20131;-70
2021/01/11 14:33:58;;;;;;;28.65;13.27;;;-0.20;93.90;;;;;;8332089;28;20048;-69
2021/01/11 14:37:58;;;;;;;27.80;13.38;;;-0.50;96.50;;;;;;8331721;28;20116;-70
2021/01/11 14:42:17;;;;;;;31.83;13.93;;;-0.70;99.60;;;;;;8328632;28;20025;-70
2021/01/11 14:46:23;;;;;;;25.85;12.43;;;-1.10;99.90;;;;;;8329948;28;20025;-69
2021/01/11 14:50:24;;;;;;;26.67;12.93;;;-1.30;99.90;;;;;;8328680;28;20103;-70
2021/01/11 14:54:25;;;;;;;27.48;12.18;;;-1.50;99.90;;;;;;8328687;28;20538;-70
2021/01/11 14:58:26;;;;;;;29.45;13.35;;;-1.70;99.90;;;;;;8328125;28;20112;-69
2021/01/11 15:02:26;;;;;;;26.90;12.55;;;-1.70;99.90;;;;;;8330254;28;20034;-69
2021/01/11 15:06:29;;;;;;;33.33;13.70;;;-1.70;99.90;;;;;;8329950;28;20034;-69
2021/01/11 15:10:30;;;;;;;76.45;34.97;;;-1.90;99.90;;;;;;8328402;28;20041;-70
2021/01/11 15:14:30;;;;;;;29.08;11.68;;;-2.30;99.90;;;;;;8329288;28;20103;-70
2021/01/11 15:18:32;;;;;;;30.73;12.60;;;-2.50;99.90;;;;;;8327977;28;20060;-69
2021/01/11 15:22:32;;;;;;;27.05;12.32;;;-2.50;99.90;;;;;;8329436;28;20472;-70
2021/01/11 15:26:34;;;;;;;28.73;12.95;;;-2.80;99.90;;;;;;8325980;28;20032;-69
2021/01/11 15:30:34;;;;;;;27.65;12.90;;;-3.00;99.90;;;;;;8329783;28;20040;-69
2021/01/11 15:34:35;;;;;;;31.52;12.80;;;-2.90;99.90;;;;;;8330635;28;20093;-69
2021/01/11 15:38:36;;;;;;;31.00;11.88;;;-3.20;99.90;;;;;;8330101;28;20491;-69
2021/01/11 15:42:46;;;;;;;30.83;12.80;;;-3.40;99.90;;;;;;8328621;28;20025;-69
2021/01/11 15:46:47;;;;;;;33.97;15.30;;;-3.50;99.90;;;;;;8328911;28;20083;-69
2021/01/11 15:50:49;;;;;;;37.95;15.90;;;-3.60;99.90;;;;;;8327923;28;20030;-67
2021/01/11 15:54:50;;;;;;;37.65;16.50;;;-3.90;99.90;;;;;;8328390;28;20018;-67
2021/01/11 15:58:50;;;;;;;26.40;11.20;;;-4.10;99.90;;;;;;8329020;28;20026;-69
2021/01/11 16:02:51;;;;;;;20.92;9.05;;;-4.10;99.90;;;;;;8328975;28;20040;-69
2021/01/11 16:06:52;;;;;;;24.02;11.30;;;-4.30;99.90;;;;;;8325279;28;20079;-68
2021/01/11 16:10:53;;;;;;;29.67;11.65;;;-4.30;99.90;;;;;;8337386;28;20025;-68
2021/01/11 16:14:53;;;;;;;26.58;11.20;;;-4.30;99.90;;;;;;8342070;28;20036;-69
2021/01/11 16:18:56;;;;;;;28.60;12.23;;;-4.20;99.90;;;;;;8328621;28;20041;-68
2021/01/11 16:22:56;;;;;;;33.28;13.02;;;-4.30;99.90;;;;;;8328076;28;20052;-69
2021/01/11 16:26:57;;;;;;;32.97;12.95;;;-4.40;99.90;;;;;;8324769;28;20025;-69
2021/01/11 16:30:57;;;;;;;31.77;11.98;;;-4.40;99.90;;;;;;8326545;28;20033;-68
2021/01/11 16:34:58;;;;;;;17.85;7.43;;;-4.40;99.90;;;;;;8327955;28;20072;-69
2021/01/11 16:38:58;;;;;;;30.80;11.55;;;-4.20;99.90;;;;;;8342348;28;20028;-68
2021/01/11 16:42:59;;;;;;;24.58;10.10;;;-4.50;99.90;;;;;;8326162;28;20033;-69
2021/01/11 16:47:00;;;;;;;33.53;13.50;;;-4.50;99.90;;;;;;8325030;28;20033;-68
2021/01/11 16:51:00;;;;;;;33.97;12.00;;;-4.70;99.90;;;;;;8325698;28;20036;-69
2021/01/11 16:55:01;;;;;;;30.00;14.00;;;-4.70;99.90;;;;;;8326673;28;20429;-68
2021/01/11 16:59:01;;;;;;;39.95;16.10;;;-4.90;99.90;;;;;;8326770;28;20033;-69
2021/01/11 17:03:02;;;;;;;36.75;14.30;;;-4.90;99.90;;;;;;8325831;28;20396;-68
2021/01/11 17:07:03;;;;;;;31.00;13.07;;;-4.80;99.90;;;;;;8327817;28;20074;-69
2021/01/11 17:11:03;;;;;;;32.50;13.85;;;-4.90;99.90;;;;;;8326065;28;20033;-68
2021/01/11 17:15:05;;;;;;;32.17;13.15;;;-4.90;99.90;;;;;;8325910;28;20060;-68
2021/01/11 17:19:06;;;;;;;34.10;12.88;;;-4.50;99.90;;;;;;8327384;28;20052;-67
2021/01/11 17:23:07;;;;;;;30.30;12.98;;;-4.70;99.90;;;;;;8324852;28;20400;-67
2021/01/11 17:27:08;;;;;;;33.10;14.80;;;-4.60;99.90;;;;;;8324789;28;20404;-66
2021/01/11 17:31:08;;;;;;;63.37;24.03;;;-4.70;99.90;;;;;;8325707;28;20044;-66
2021/01/11 17:35:10;;;;;;;118.93;101.45;;;-4.60;99.90;;;;;;8325217;28;20025;-67
2021/01/11 17:39:10;;;;;;;403.40;369.90;;;-4.60;99.90;;;;;;8323576;28;20393;-66
2021/01/11 17:43:11;;;;;;;85.07;27.65;;;-4.60;99.90;;;;;;8318936;28;20029;-67
2021/01/11 17:47:12;;;;;;;75.82;24.40;;;-4.60;99.90;;;;;;8319259;28;20029;-66
2021/01/11 17:51:13;;;;;;;70.15;24.75;;;-4.40;99.90;;;;;;8323113;28;20052;-67
2021/01/11 17:55:14;;;;;;;65.28;24.67;;;-4.20;99.90;;;;;;8312617;28;20098;-67
2021/01/11 17:59:15;;;;;;;;;;;-4.30;99.90;;;;;;8318558;28;20096;-67
2021/01/11 18:03:15;;;;;;;;;;;-4.40;99.90;;;;;;8319754;28;19912;-69
2021/01/11 18:07:16;;;;;;;;;;;-4.20;99.90;;;;;;8320005;28;19913;-68
2021/01/11 18:11:17;;;;;;;;;;;-4.30;99.90;;;;;;8320353;28;19917;-69
2021/01/11 18:15:17;;;;;;;;;;;-4.20;99.90;;;;;;8320118;28;19921;-69
2021/01/11 18:19:18;;;;;;;;;;;-4.20;99.90;;;;;;8320033;28;19917;-68
2021/01/11 18:23:18;;;;;;;;;;;-4.10;99.90;;;;;;8316022;28;19913;-68
2021/01/11 18:27:19;;;;;;;;;;;-4.10;99.90;;;;;;8319172;28;19920;-69
2021/01/11 18:31:23;;;;;;;;;;;-4.00;99.90;;;;;;8316932;28;19913;-68
2021/01/11 18:35:24;;;;;;;;;;;-4.10;99.90;;;;;;8319743;28;19936;-68
2021/01/11 18:39:26;;;;;;;;;;;-4.00;99.90;;;;;;8317794;28;20333;-68
2021/01/11 18:43:26;;;;;;;;;;;-4.10;99.90;;;;;;8322505;28;20000;-68
2021/01/11 18:47:27;;;;;;;;;;;-4.00;99.90;;;;;;8322469;28;19909;-68
2021/01/11 18:51:27;;;;;;;;;;;-4.00;99.90;;;;;;8324093;28;20009;-67
2021/01/11 18:55:28;;;;;;;;;;;-3.80;99.90;;;;;;8315458;28;20433;-68
2021/01/11 18:59:28;;;;;;;;;;;-3.80;99.90;;;;;;8323594;28;19924;-65
2021/01/11 19:03:29;;;;;;;;;;;-3.90;99.90;;;;;;8320719;28;19929;-66
2021/01/11 19:07:30;;;;;;;;;;;-3.80;99.90;;;;;;8320305;28;19913;-68
2021/01/11 19:11:32;;;;;;;;;;;-3.80;99.90;;;;;;8325125;28;19921;-68
2021/01/11 19:15:32;;;;;;;;;;;-3.70;99.90;;;;;;8324649;28;19912;-67
2021/01/11 19:19:33;;;;;;;;;;;-3.70;99.90;;;;;;8319804;28;20288;-67
2021/01/11 19:23:34;;;;;;;;;;;-3.70;99.90;;;;;;8318085;28;19964;-67
2021/01/11 19:27:34;;;;;;;;;;;-3.80;99.90;;;;;;8318952;28;19972;-67
2021/01/11 19:31:36;;;;;;;;;;;-3.80;99.90;;;;;;8319082;28;19917;-67
2021/01/11 19:35:37;;;;;;;;;;;-3.70;99.90;;;;;;8321768;28;19940;-67
2021/01/11 19:39:37;;;;;;;644.17;605.00;;;-3.60;99.90;;;;;;8319395;28;20420;-67
2021/01/11 19:43:38;;;;;;;;;;;-3.60;99.90;;;;;;8320606;28;20041;-68
2021/01/11 19:47:39;;;;;;;568.93;526.77;;;-3.60;99.90;;;;;;8315242;28;21272;-67
2021/01/11 19:51:39;;;;;;;;;;;-3.50;99.90;;;;;;8320546;28;20034;-67
2021/01/11 19:55:40;;;;;;;;;;;-3.70;99.90;;;;;;8319639;28;19920;-67
2021/01/11 19:59:41;;;;;;;;;;;-3.50;99.90;;;;;;8320008;28;19993;-69
2021/01/11 20:03:45;;;;;;;;;;;-3.50;99.90;;;;;;8319166;28;19917;-69
2021/01/11 20:07:45;;;;;;;;;;;-3.40;99.90;;;;;;8317114;28;20338;-67
2021/01/11 20:11:46;;;;;;;;;;;-3.50;99.90;;;;;;8319851;28;19916;-69
2021/01/11 20:15:47;;;;;;;;;;;-3.40;99.90;;;;;;8320972;28;19917;-69
2021/01/11 20:19:49;;;;;;;;;;;-3.50;99.90;;;;;;8320020;28;19916;-71
2021/01/11 20:23:49;;;;;;;;;;;-3.50;99.90;;;;;;8335857;28;19923;-70
2021/01/11 20:27:51;;;;;;;;;;;-3.40;99.90;;;;;;8324408;28;20413;-69
2021/01/11 20:31:52;;;;;;;;;;;-3.40;99.90;;;;;;8319394;28;19927;-69
2021/01/11 20:35:52;;;;;;;;;;;-3.40;99.90;;;;;;8317349;28;19944;-70
2021/01/11 20:39:53;;;;;;;;;;;-3.30;99.90;;;;;;8334890;28;19956;-69
2021/01/11 20:43:53;;;;;;;;;;;-3.30;99.90;;;;;;8317704;28;19944;-70